Airport View

Enter AWOS ICAO identifier for current METAR.

ex. KFNL

KWHP 202355Z 00000KT 10SM SKC 26/11 A2988

21 Sep 2019 00:55

Frequency: 132.1

Phone: 818-899-9820

Other Area AWOS: KBUR - KVNY - KSMO - KCQT

TAF KBUR 202342Z 2100/2124 17009KT P6SM SKC FM210300 16005KT P6SM SKC FM211000 VRB03KT P6SM SKC FM212100 18008KT P6SM SKC